Time;durP1;ratioP1;P1;durP2;ratioP2;P2;SDS_P1;SDS_P2;PMS_P1;PMS_P2;Temp;Humidity;BMP_temperature;BMP_pressure;BME280_temperature;BME280_humidity;BME280_pressure;Samples;Min_cycle;Max_cycle;Signal;HPM_P1;HPM_P2
2023/07/13 00:01:55;;;;;;;2.60;2.10;;;18.30;99.90;;;;;;10374055;28;20426;-78
2023/07/13 00:07:19;;;;;;;3.17;2.13;;;18.10;99.90;;;;;;10359931;28;20229;-80
2023/07/13 00:12:41;;;;;;;3.33;2.13;;;18.20;99.90;;;;;;10359370;28;20585;-78
2023/07/13 00:18:04;;;;;;;4.15;2.30;;;18.20;99.90;;;;;;10397123;28;20268;-77
2023/07/13 00:23:25;;;;;;;3.53;2.20;;;18.10;99.90;;;;;;10373286;28;20232;-78
2023/07/13 00:28:46;;;;;;;4.45;2.60;;;18.10;99.90;;;;;;10393970;28;20202;-78
2023/07/13 00:34:08;;;;;;;3.63;2.80;;;18.00;99.90;;;;;;10362316;28;20277;-79
2023/07/13 00:39:29;;;;;;;2.33;2.13;;;17.90;99.90;;;;;;10358864;28;20212;-79
2023/07/13 00:45:12;;;;;;;2.25;1.92;;;17.90;99.90;;;;;;10394690;28;20229;-80
2023/07/13 00:56:33;;;;;;;7.30;2.92;;;17.80;99.90;;;;;;10278337;24;20248;-79
2023/07/13 01:01:54;;;;;;;3.88;2.38;;;17.80;99.90;;;;;;9933219;29;20241;-80
2023/07/13 01:07:16;;;;;;;5.50;2.65;;;17.70;99.90;;;;;;9946325;29;20201;-81
2023/07/13 01:12:37;;;;;;;7.53;3.20;;;17.70;99.90;;;;;;9949173;29;20270;-81
2023/07/13 01:17:58;;;;;;;3.83;2.20;;;17.60;99.90;;;;;;9931207;30;20201;-84
2023/07/13 01:23:20;;;;;;;4.18;2.40;;;17.60;99.90;;;;;;9930902;30;20594;-83
2023/07/13 01:28:42;;;;;;;5.57;3.47;;;17.60;99.90;;;;;;9934540;29;20281;-83
2023/07/13 01:34:03;;;;;;;4.55;2.70;;;17.50;99.90;;;;;;9962554;29;20205;-79
2023/07/13 01:39:24;;;;;;;3.08;2.30;;;17.40;99.90;;;;;;9967691;29;20230;-81
2023/07/13 01:44:45;;;;;;;3.47;2.63;;;17.40;99.90;;;;;;9928982;29;20282;-81
2023/07/13 01:50:07;;;;;;;5.88;3.03;;;17.40;99.90;;;;;;9931034;29;20234;-83
2023/07/13 01:55:29;;;;;;;4.38;2.75;;;17.40;99.90;;;;;;9938695;29;20528;-82
2023/07/13 02:00:51;;;;;;;5.90;2.92;;;17.40;99.90;;;;;;9935460;29;20254;-80
2023/07/13 02:06:14;;;;;;;2.92;1.98;;;17.40;99.90;;;;;;9964266;29;20200;-80
2023/07/13 02:11:35;;;;;;;5.93;2.40;;;17.40;99.90;;;;;;9977446;29;20228;-81
2023/07/13 02:16:57;;;;;;;3.60;2.70;;;17.40;99.90;;;;;;9965761;29;20204;-78
2023/07/13 02:22:18;;;;;;;5.70;2.55;;;17.40;99.90;;;;;;9978330;29;20308;-80
2023/07/13 02:27:40;;;;;;;4.65;2.60;;;17.50;99.90;;;;;;9930361;29;20496;-80
2023/07/13 02:33:03;;;;;;;4.50;2.58;;;17.50;99.90;;;;;;9949139;29;20251;-77
2023/07/13 02:38:24;;;;;;;4.07;2.50;;;17.50;99.90;;;;;;9928603;29;20226;-81
2023/07/13 02:43:45;;;;;;;5.70;2.55;;;17.50;99.90;;;;;;9931296;29;20259;-79
2023/07/13 02:49:07;;;;;;;3.15;2.40;;;17.50;99.90;;;;;;9943344;29;20213;-83
2023/07/13 02:54:28;;;;;;;3.33;2.75;;;17.50;99.90;;;;;;9945893;29;20460;-79
2023/07/13 02:59:50;;;;;;;2.72;2.10;;;17.50;99.90;;;;;;9932843;29;20212;-81
2023/07/13 03:05:12;;;;;;;7.03;2.40;;;17.40;99.90;;;;;;9942069;29;20233;-81
2023/07/13 03:10:35;;;;;;;4.03;2.20;;;17.40;99.90;;;;;;9942466;29;20508;-78
2023/07/13 03:15:58;;;;;;;4.43;2.22;;;17.30;99.90;;;;;;9927324;30;20205;-79
2023/07/13 03:21:20;;;;;;;6.55;2.35;;;17.30;99.90;;;;;;9926478;29;20261;-79
2023/07/13 03:26:41;;;;;;;4.97;2.65;;;17.20;99.90;;;;;;9942563;29;20525;-78
2023/07/13 03:32:04;;;;;;;3.67;2.38;;;17.30;99.90;;;;;;9949928;29;20254;-83
2023/07/13 03:37:26;;;;;;;4.85;2.30;;;17.30;99.90;;;;;;9926971;30;20206;-84
2023/07/13 03:42:48;;;;;;;4.57;2.20;;;17.30;99.90;;;;;;9929063;29;20239;-79
2023/07/13 03:48:11;;;;;;;5.00;2.28;;;17.30;99.90;;;;;;9938750;29;20220;-77
2023/07/13 03:53:33;;;;;;;3.83;2.25;;;17.30;99.90;;;;;;9938470;29;20243;-78
2023/07/13 03:58:55;;;;;;;8.65;3.00;;;17.30;99.90;;;;;;9964443;29;20212;-78
2023/07/13 04:04:17;;;;;;;6.35;2.40;;;17.30;99.90;;;;;;9972397;29;20278;-79
2023/07/13 04:09:38;;;;;;;4.88;2.28;;;17.30;99.90;;;;;;9935251;29;20201;-79
2023/07/13 04:14:59;;;;;;;3.28;2.22;;;17.30;99.90;;;;;;9953565;29;20498;-78
2023/07/13 04:20:21;;;;;;;5.40;2.38;;;17.40;99.90;;;;;;9969613;29;20278;-79
2023/07/13 04:25:49;;;;;;;8.18;3.03;;;17.40;99.90;;;;;;9959985;29;20237;-79
2023/07/13 04:31:10;;;;;;;6.28;2.67;;;17.40;99.90;;;;;;9933687;29;20200;-77
2023/07/13 04:36:31;;;;;;;5.63;2.55;;;17.60;99.90;;;;;;9941266;29;20215;-78
2023/07/13 04:41:52;;;;;;;6.82;2.83;;;17.60;99.90;;;;;;9953443;29;20310;-78
2023/07/13 04:47:14;;;;;;;6.18;2.60;;;17.70;99.90;;;;;;9943620;29;20205;-81
2023/07/13 04:52:36;;;;;;;4.43;2.17;;;17.80;99.90;;;;;;9969988;29;20206;-79
2023/07/13 04:58:00;;;;;;;5.82;2.20;;;17.90;99.90;;;;;;9966935;29;20494;-81
2023/07/13 05:03:21;;;;;;;6.35;2.17;;;18.10;99.90;;;;;;9931917;29;20244;-87
2023/07/13 05:08:43;;;;;;;4.93;2.20;;;;;;;;;;9968376;29;20196;-83
2023/07/13 05:14:05;;;;;;;7.95;2.28;;;;;;;;;;9947775;29;20214;-82
2023/07/13 05:19:28;;;;;;;10.70;2.97;;;;;;;;;;9942578;29;20279;-82
2023/07/13 05:24:50;;;;;;;4.88;1.98;;;;;;;;;;9950088;29;20252;-85
2023/07/13 05:30:13;;;;;;;7.53;2.80;;;;;;;;;;9940360;29;20560;-83
2023/07/13 05:35:37;;;;;;;8.25;2.42;;;;;;;;;;9917419;29;20217;-83
2023/07/13 05:40:59;;;;;;;7.68;2.45;;;;;;;;;;9945702;29;20209;-81
2023/07/13 05:46:22;;;;;;;5.15;2.10;;;;;;;;;;9929572;29;20217;-82
2023/07/13 05:51:43;;;;;;;4.28;1.67;;;;;;;;;;9929428;30;20234;-83
2023/07/13 05:57:05;;;;;;;5.00;1.85;;;;;;;;;;9937813;29;20239;-84
2023/07/13 06:02:26;;;;;;;6.70;2.05;;;19.30;99.90;;;;;;9941052;29;20270;-83
2023/07/13 06:07:47;;;;;;;6.93;1.83;;;19.30;99.90;;;;;;9960518;29;20261;-80
2023/07/13 06:13:08;;;;;;;5.10;1.90;;;19.50;99.90;;;;;;9952472;29;20415;-84
2023/07/13 06:18:31;;;;;;;8.15;2.20;;;19.70;99.90;;;;;;9928426;29;20201;-84
2023/07/13 06:23:53;;;;;;;9.75;1.88;;;19.90;99.90;;;;;;9930666;29;20233;-82
2023/07/13 06:29:14;;;;;;;3.83;2.13;;;20.10;99.90;;;;;;9914577;30;20212;-82
2023/07/13 06:34:35;;;;;;;8.30;2.05;;;20.30;99.90;;;;;;9965164;29;20209;-85
2023/07/13 06:39:57;;;;;;;4.75;1.73;;;20.40;99.90;;;;;;9943689;29;20284;-84
2023/07/13 06:45:18;;;;;;;3.08;1.42;;;20.80;99.90;;;;;;9927311;29;20232;-85
2023/07/13 06:50:41;;;;;;;6.15;2.15;;;21.10;99.90;;;;;;9928506;29;20212;-84
2023/07/13 06:56:02;;;;;;;5.82;2.17;;;20.90;99.90;;;;;;9904871;29;20332;-86
2023/07/13 07:01:24;;;;;;;3.72;1.55;;;;;;;;;;9959599;29;20238;-81
2023/07/13 07:06:45;;;;;;;4.95;1.70;;;22.70;99.90;;;;;;9957355;29;20220;-80
2023/07/13 07:12:07;;;;;;;2.85;1.52;;;22.50;1.00;;;;;;9944699;29;20212;-79
2023/07/13 07:17:28;;;;;;;5.68;1.65;;;22.40;1.00;;;;;;9963867;29;20208;-81
2023/07/13 07:22:50;;;;;;;4.30;1.80;;;22.10;88.10;;;;;;9937171;29;20269;-81
2023/07/13 07:28:14;;;;;;;5.50;1.65;;;22.60;71.00;;;;;;9948635;29;20469;-87
2023/07/13 07:33:56;;;;;;;7.35;1.75;;;23.20;52.80;;;;;;9946087;29;20270;-92
2023/07/13 07:39:17;;;;;;;5.22;1.48;;;23.60;1.00;;;;;;9934425;29;20212;-89
2023/07/13 07:44:40;;;;;;;4.72;1.65;;;23.30;1.00;;;;;;9943755;29;20251;-84
2023/07/13 07:50:02;;;;;;;2.50;1.50;;;;;;;;;;9954268;29;20201;-82
2023/07/13 07:55:28;;;;;;;5.75;2.03;;;22.90;1.00;;;;;;9939359;29;20293;-84
2023/07/13 08:00:53;;;;;;;3.63;1.20;;;23.70;1.00;;;;;;9953981;29;20212;-91
2023/07/13 08:06:19;;;;;;;3.55;1.38;;;24.20;99.90;;;;;;9940673;29;20238;-83
2023/07/13 08:11:43;;;;;;;5.13;1.60;;;24.20;99.90;;;;;;9957286;29;20217;-81
2023/07/13 08:17:08;;;;;;;9.80;1.60;;;24.40;99.90;;;;;;9940270;29;20235;-83
2023/07/13 08:22:29;;;;;;;2.35;1.27;;;25.20;99.90;;;;;;9978296;29;20259;-83
2023/07/13 08:27:52;;;;;;;4.15;1.20;;;25.40;99.90;;;;;;9952405;29;20239;-85
2023/07/13 08:33:13;;;;;;;2.58;1.25;;;25.00;99.90;;;;;;9942823;29;20216;-82
2023/07/13 08:38:34;;;;;;;3.55;1.27;;;24.60;99.90;;;;;;9964433;29;20272;-82
2023/07/13 08:43:59;;;;;;;3.00;1.10;;;24.90;99.90;;;;;;9953234;29;20304;-83
2023/07/13 08:49:22;;;;;;;2.05;1.40;;;24.50;99.90;;;;;;9941956;29;20205;-83
2023/07/13 08:54:49;;;;;;;4.30;2.13;;;24.10;99.90;;;;;;9947464;29;20546;-83
2023/07/13 09:00:14;;;;;;;3.67;2.00;;;23.90;99.90;;;;;;9979297;29;20263;-85
2023/07/13 09:05:41;;;;;;;3.20;1.50;;;25.00;99.90;;;;;;9976642;29;20237;-91
2023/07/13 09:11:06;;;;;;;3.35;1.90;;;26.10;99.90;;;;;;9928970;29;20251;-82
2023/07/13 09:16:27;;;;;;;2.50;1.27;;;26.10;99.90;;;;;;9927040;30;20224;-86
2023/07/13 09:21:51;;;;;;;2.17;1.30;;;25.40;99.90;;;;;;9958928;29;20196;-80
2023/07/13 09:27:17;;;;;;;4.93;1.55;;;24.60;99.90;;;;;;9960142;29;20217;-82
2023/07/13 09:32:43;;;;;;;3.00;1.48;;;24.00;99.90;;;;;;9949083;29;20215;-89
2023/07/13 09:38:16;;;;;;;3.60;1.20;;;23.70;99.90;;;;;;9950032;29;20200;-83
2023/07/13 09:43:37;;;;;;;4.65;1.63;;;25.00;99.90;;;;;;9935021;29;20240;-87
2023/07/13 09:48:59;;;;;;;2.83;1.27;;;26.10;99.90;;;;;;9949386;29;20200;-84
2023/07/13 09:54:24;;;;;;;3.20;1.30;;;25.70;99.90;;;;;;9961586;29;20254;-83
2023/07/13 09:59:48;;;;;;;1.33;1.05;;;25.60;99.90;;;;;;9953067;29;20562;-82
2023/07/13 10:05:16;;;;;;;2.17;1.30;;;25.80;99.90;;;;;;9946563;29;20244;-87
2023/07/13 10:10:38;;;;;;;4.13;1.63;;;26.60;99.90;;;;;;9946872;29;20399;-80
2023/07/13 10:16:01;;;;;;;5.45;2.20;;;27.30;99.90;;;;;;9914813;29;20270;-88
2023/07/13 10:21:33;;;;;;;2.63;1.27;;;27.50;99.90;;;;;;9929819;29;20209;-88
2023/07/13 10:27:11;;;;;;;5.63;1.30;;;26.90;99.90;;;;;;9914411;29;20244;-84
2023/07/13 10:32:32;;;;;;;4.20;1.25;;;26.70;99.90;;;;;;9962213;29;20384;-81
2023/07/13 10:38:09;;;;;;;2.17;1.25;;;26.00;99.90;;;;;;9942368;29;20217;-92
2023/07/13 10:43:39;;;;;;;2.40;1.38;;;25.40;99.90;;;;;;9943328;29;20246;-83
2023/07/13 10:49:04;;;;;;;2.75;1.30;;;25.10;99.90;;;;;;9932189;29;20217;-83
2023/07/13 10:54:28;;;;;;;1.98;1.33;;;25.50;99.90;;;;;;9961691;29;20251;-83
2023/07/13 11:00:17;;;;;;;2.83;1.20;;;26.40;99.90;;;;;;9959486;29;20550;-88
2023/07/13 11:05:40;;;;;;;2.92;1.27;;;27.00;99.90;;;;;;9966506;29;20243;-83
2023/07/13 11:11:01;;;;;;;2.58;1.10;;;27.10;99.90;;;;;;9937681;29;20213;-80
2023/07/13 11:16:22;;;;;;;4.00;1.17;;;27.40;99.90;;;;;;9949415;29;20275;-81
2023/07/13 11:22:07;;;;;;;1.30;1.10;;;27.60;99.90;;;;;;9963288;29;20263;-82
2023/07/13 11:27:36;;;;;;;4.43;1.65;;;27.60;99.90;;;;;;9981808;29;20208;-84
2023/07/13 11:33:33;;;;;;;10.25;5.90;;;27.40;99.90;;;;;;9992969;29;20218;-86
2023/07/13 11:39:03;;;;;;;2.97;1.63;;;26.70;99.90;;;;;;9936806;29;20225;-82
2023/07/13 11:44:26;;;;;;;3.47;1.63;;;26.10;99.90;;;;;;9943984;29;20587;-84
2023/07/13 11:49:56;;;;;;;2.60;1.17;;;25.70;99.90;;;;;;9947934;29;20382;-80
2023/07/13 11:55:19;;;;;;;4.28;1.75;;;25.30;99.90;;;;;;9932018;29;20442;-84
2023/07/13 12:00:41;;;;;;;2.88;1.20;;;25.40;99.90;;;;;;9929190;30;20254;-83
2023/07/13 12:06:06;;;;;;;3.08;1.80;;;25.60;99.90;;;;;;9935814;29;20228;-86
2023/07/13 12:11:28;;;;;;;3.42;1.55;;;25.50;99.90;;;;;;9946052;29;20217;-86
2023/07/13 12:16:49;;;;;;;2.22;1.17;;;25.40;99.90;;;;;;9919388;30;20212;-88
2023/07/13 12:22:13;;;;;;;1.17;0.90;;;25.40;99.90;;;;;;9971909;29;20216;-83
2023/07/13 12:27:34;;;;;;;5.30;1.13;;;26.00;99.90;;;;;;9954132;29;20244;-85
2023/07/13 12:33:10;;;;;;;1.92;0.93;;;26.90;99.90;;;;;;9965730;29;20357;-86
2023/07/13 12:38:32;;;;;;;3.15;1.35;;;27.40;99.90;;;;;;9963978;29;20219;-81
2023/07/13 12:43:53;;;;;;;1.65;1.00;;;27.50;99.90;;;;;;9961143;29;20235;-87
2023/07/13 12:49:15;;;;;;;2.03;1.08;;;27.00;99.90;;;;;;9953235;29;20253;-90
2023/07/13 12:54:39;;;;;;;2.53;1.00;;;26.50;99.90;;;;;;9975094;29;20620;-86
2023/07/13 13:00:04;;;;;;;4.82;1.33;;;26.10;99.90;;;;;;9913129;30;20201;-83
2023/07/13 13:05:26;;;;;;;1.90;1.00;;;26.40;99.90;;;;;;9924668;30;20308;-82
2023/07/13 13:10:48;;;;;;;1.23;0.82;;;26.60;99.90;;;;;;9931316;29;20224;-85
2023/07/13 13:16:12;;;;;;;7.20;1.50;;;27.10;99.90;;;;;;9956424;29;20200;-85
2023/07/13 13:21:33;;;;;;;1.85;1.20;;;27.50;99.90;;;;;;9975264;29;20208;-82
2023/07/13 13:26:56;;;;;;;1.90;0.98;;;27.00;99.90;;;;;;9973308;29;20282;-82
2023/07/13 13:32:18;;;;;;;2.25;1.00;;;26.70;99.90;;;;;;9976468;29;20232;-81
2023/07/13 13:37:41;;;;;;;3.38;1.60;;;26.30;99.90;;;;;;9946970;29;20216;-82
2023/07/13 13:43:02;;;;;;;3.05;1.48;;;26.20;99.90;;;;;;9965307;29;20236;-80
2023/07/13 13:48:42;;;;;;;1.88;0.90;;;26.70;99.90;;;;;;9965769;29;20208;-84
2023/07/13 13:54:04;;;;;;;4.00;1.23;;;26.50;99.90;;;;;;9976631;29;20278;-80
2023/07/13 13:59:26;;;;;;;1.52;1.00;;;26.60;99.90;;;;;;9943543;29;20217;-82
2023/07/13 14:04:59;;;;;;;1.85;0.95;;;26.60;99.90;;;;;;9925204;29;20243;-82
2023/07/13 14:10:20;;;;;;;1.85;1.00;;;26.70;99.90;;;;;;9978364;29;20232;-83
2023/07/13 14:16:12;;;;;;;1.50;0.88;;;27.00;99.90;;;;;;9957536;29;20216;-89
2023/07/13 14:21:34;;;;;;;3.00;1.00;;;26.90;99.90;;;;;;9981418;29;20217;-81
2023/07/13 14:26:56;;;;;;;2.78;1.10;;;26.70;99.90;;;;;;9980386;29;20594;-90
2023/07/13 14:32:17;;;;;;;1.80;1.40;;;26.70;99.90;;;;;;9990345;29;20208;-87
2023/07/13 14:37:40;;;;;;;1.52;1.42;;;26.80;99.90;;;;;;9976446;29;20200;-84
2023/07/13 14:43:01;;;;;;;3.53;1.67;;;26.70;99.90;;;;;;9960323;29;20230;-81
2023/07/13 14:48:24;;;;;;;2.63;1.10;;;26.60;99.90;;;;;;9977190;29;20204;-82
2023/07/13 14:53:46;;;;;;;3.33;1.15;;;26.20;99.90;;;;;;10000912;29;20545;-84
2023/07/13 14:59:07;;;;;;;3.30;1.30;;;25.90;99.90;;;;;;9962865;29;20287;-88
2023/07/13 15:04:30;;;;;;;2.35;0.90;;;26.00;99.90;;;;;;9995297;29;20235;-83
2023/07/13 15:09:52;;;;;;;1.08;0.93;;;26.00;99.90;;;;;;10014332;29;20435;-82
2023/07/13 15:15:14;;;;;;;1.77;0.93;;;26.10;99.90;;;;;;9993329;29;20408;-82
2023/07/13 15:20:35;;;;;;;2.53;1.20;;;26.00;99.90;;;;;;9964520;29;20425;-84
2023/07/13 15:25:56;;;;;;;2.55;1.30;;;25.70;99.90;;;;;;10006047;29;20494;-81
2023/07/13 15:31:24;;;;;;;2.60;0.82;;;25.60;99.90;;;;;;9956627;29;20243;-83
2023/07/13 15:36:45;;;;;;;1.60;1.08;;;25.60;99.90;;;;;;9982227;29;20341;-83
2023/07/13 15:42:14;;;;;;;3.58;1.35;;;25.50;99.90;;;;;;9965576;29;20206;-82
2023/07/13 15:47:35;;;;;;;1.50;1.13;;;25.40;99.90;;;;;;9989576;29;20253;-82
2023/07/13 15:52:59;;;;;;;1.15;0.98;;;25.50;99.90;;;;;;9990803;29;20448;-91
2023/07/13 15:58:20;;;;;;;1.20;1.00;;;25.60;99.90;;;;;;9985781;29;20264;-81
2023/07/13 16:03:41;;;;;;;2.05;1.08;;;25.80;99.90;;;;;;9984588;29;20235;-81
2023/07/13 16:09:05;;;;;;;2.17;0.93;;;26.00;99.90;;;;;;9970470;29;20228;-85
2023/07/13 16:14:26;;;;;;;4.13;1.00;;;25.90;99.90;;;;;;9961017;29;20208;-82
2023/07/13 16:19:47;;;;;;;3.45;1.27;;;25.80;99.90;;;;;;9957508;29;20215;-80
2023/07/13 16:25:21;;;;;;;1.13;0.90;;;25.70;99.90;;;;;;9971325;29;20307;-90
2023/07/13 16:30:43;;;;;;;2.53;0.90;;;25.60;99.90;;;;;;9993651;29;20204;-83
2023/07/13 16:36:11;;;;;;;5.95;1.40;;;25.50;99.90;;;;;;9949775;29;20233;-83
2023/07/13 16:41:32;;;;;;;1.10;0.93;;;25.60;99.90;;;;;;10005852;29;20208;-84
2023/07/13 16:46:55;;;;;;;3.33;1.17;;;25.50;99.90;;;;;;10015943;29;20235;-81
2023/07/13 16:52:21;;;;;;;1.13;0.90;;;25.40;99.90;;;;;;9993803;29;20207;-81
2023/07/13 16:57:45;;;;;;;2.67;1.00;;;25.40;99.90;;;;;;10005519;29;20563;-82
2023/07/13 17:03:06;;;;;;;1.83;1.00;;;25.30;99.90;;;;;;9967228;29;20286;-82
2023/07/13 17:08:31;;;;;;;3.95;1.38;;;25.20;99.90;;;;;;9968624;29;20201;-82
2023/07/13 17:13:52;;;;;;;2.22;0.98;;;25.10;99.90;;;;;;9970129;29;20456;-80
2023/07/13 17:19:16;;;;;;;2.35;1.20;;;24.90;99.90;;;;;;9960660;29;20239;-83
2023/07/13 17:24:37;;;;;;;3.25;1.77;;;24.70;99.90;;;;;;9971965;29;20232;-80
2023/07/13 17:29:58;;;;;;;1.65;1.30;;;24.60;99.90;;;;;;10006123;29;20215;-80
2023/07/13 17:35:24;;;;;;;1.88;1.33;;;24.50;99.90;;;;;;10001758;29;20196;-81
2023/07/13 17:40:46;;;;;;;5.97;1.50;;;24.30;99.90;;;;;;9965863;29;20200;-81
2023/07/13 17:46:28;;;;;;;3.78;2.35;;;24.00;99.90;;;;;;9997514;29;20251;-83
2023/07/13 17:51:50;;;;;;;4.07;1.90;;;;;;;;;;10004843;29;20260;-82
2023/07/13 17:57:11;;;;;;;3.90;2.53;;;23.10;1.00;;;;;;10004222;29;20571;-79
2023/07/13 18:02:33;;;;;;;3.50;2.03;;;;;;;;;;9963566;29;20208;-82
2023/07/13 18:07:55;;;;;;;3.40;1.80;;;22.90;1.00;;;;;;10005294;29;20208;-80
2023/07/13 18:13:17;;;;;;;4.95;1.85;;;22.60;99.90;;;;;;9971183;29;20219;-81
2023/07/13 18:18:39;;;;;;;4.90;2.33;;;22.40;99.90;;;;;;9981557;29;20279;-81
2023/07/13 18:24:04;;;;;;;4.03;2.53;;;22.30;99.90;;;;;;10000662;29;20255;-81
2023/07/13 18:29:26;;;;;;;4.35;2.13;;;22.20;99.90;;;;;;9986426;29;20231;-81
2023/07/13 18:34:51;;;;;;;2.55;1.83;;;22.20;99.90;;;;;;9990123;29;20211;-80
2023/07/13 18:40:18;;;;;;;3.38;1.25;;;22.10;99.90;;;;;;10003514;29;20204;-81
2023/07/13 18:45:40;;;;;;;3.92;1.58;;;21.90;99.90;;;;;;9973784;29;20247;-81
2023/07/13 18:51:02;;;;;;;4.75;2.17;;;21.80;99.90;;;;;;9965123;29;20192;-80
2023/07/13 18:56:25;;;;;;;2.88;1.55;;;21.70;99.90;;;;;;9953220;29;20293;-81
2023/07/13 19:01:47;;;;;;;4.70;2.42;;;21.60;99.90;;;;;;9990957;29;20222;-81
2023/07/13 19:07:10;;;;;;;4.43;2.38;;;21.50;1.00;;;;;;9969475;29;20243;-81
2023/07/13 19:12:33;;;;;;;2.70;2.08;;;21.50;1.00;;;;;;9966210;29;20197;-79
2023/07/13 19:17:54;;;;;;;2.67;1.83;;;21.50;1.00;;;;;;10002239;29;20199;-80
2023/07/13 19:23:41;;;;;;;3.35;2.13;;;21.50;1.00;;;;;;10001820;29;20302;-80
2023/07/13 19:29:04;;;;;;;5.03;1.73;;;21.40;1.00;;;;;;9981532;29;20207;-80
2023/07/13 19:34:26;;;;;;;3.05;1.50;;;21.20;1.00;;;;;;10001762;29;20264;-80
2023/07/13 19:39:51;;;;;;;4.75;1.63;;;21.00;1.00;;;;;;10022010;29;20219;-80
2023/07/13 19:45:19;;;;;;;3.70;1.58;;;20.80;1.00;;;;;;9982706;29;20319;-81
2023/07/13 19:50:42;;;;;;;3.80;1.70;;;20.70;1.00;;;;;;9963659;29;20291;-80
2023/07/13 19:56:03;;;;;;;3.15;1.48;;;20.60;1.00;;;;;;9983716;29;20315;-81
2023/07/13 20:01:27;;;;;;;7.35;1.52;;;20.40;1.00;;;;;;9957964;29;20231;-81
2023/07/13 20:06:49;;;;;;;5.03;2.22;;;20.40;1.00;;;;;;9987133;29;20243;-80
2023/07/13 20:12:12;;;;;;;3.53;2.30;;;20.30;1.00;;;;;;10003090;29;20207;-81
2023/07/13 20:17:40;;;;;;;4.45;2.40;;;20.30;1.00;;;;;;10007337;29;20207;-80
2023/07/13 20:23:01;;;;;;;2.92;2.08;;;20.30;1.00;;;;;;10013107;29;20507;-81
2023/07/13 20:28:24;;;;;;;3.05;2.22;;;20.20;1.00;;;;;;9999623;29;20306;-80
2023/07/13 20:33:45;;;;;;;4.43;2.45;;;20.20;1.00;;;;;;10008254;29;20302;-80
2023/07/13 20:39:09;;;;;;;3.78;2.50;;;20.20;1.00;;;;;;10007968;29;20550;-80
2023/07/13 20:44:31;;;;;;;3.38;2.65;;;20.10;1.00;;;;;;10016632;29;20235;-80
2023/07/13 20:49:52;;;;;;;6.53;3.40;;;20.00;1.00;;;;;;10018640;29;20200;-80
2023/07/13 20:55:20;;;;;;;6.40;4.38;;;20.00;23.80;;;;;;10003833;29;20435;-80
2023/07/13 21:00:42;;;;;;;6.38;3.78;;;19.90;24.20;;;;;;10003351;29;20212;-80
2023/07/13 21:06:15;;;;;;;4.93;3.50;;;19.80;95.70;;;;;;10006258;29;20228;-79
2023/07/13 21:11:36;;;;;;;5.00;3.72;;;19.70;99.90;;;;;;9991285;29;20211;-80
2023/07/13 21:16:59;;;;;;;7.00;4.07;;;19.70;99.90;;;;;;9955456;29;20209;-81
2023/07/13 21:22:21;;;;;;;6.05;3.63;;;19.50;99.90;;;;;;9945117;29;20231;-81
2023/07/13 21:27:44;;;;;;;6.03;4.05;;;19.60;99.90;;;;;;9995450;29;20307;-80
2023/07/13 21:33:07;;;;;;;6.07;4.38;;;19.50;99.90;;;;;;9992770;29;20566;-82
2023/07/13 21:38:37;;;;;;;6.97;4.20;;;19.50;1.00;;;;;;10006407;29;20228;-81
2023/07/13 21:43:59;;;;;;;4.72;3.28;;;19.50;1.00;;;;;;9982842;29;20513;-81
2023/07/13 21:49:24;;;;;;;6.72;2.88;;;19.50;99.90;;;;;;9955115;29;20216;-81
2023/07/13 21:54:45;;;;;;;5.00;2.53;;;19.50;99.90;;;;;;9954048;29;20239;-81
2023/07/13 22:00:24;;;;;;;5.30;3.42;;;19.50;99.90;;;;;;9988623;29;20439;-81
2023/07/13 22:05:47;;;;;;;5.15;2.47;;;19.50;1.00;;;;;;10016764;29;20253;-81
2023/07/13 22:11:12;;;;;;;4.90;2.50;;;19.40;1.00;;;;;;10000573;29;20222;-81
2023/07/13 22:16:35;;;;;;;3.15;2.05;;;19.30;99.90;;;;;;9966105;29;20228;-81
2023/07/13 22:21:57;;;;;;;4.03;1.75;;;19.30;47.80;;;;;;9981375;29;20208;-79
2023/07/13 22:27:18;;;;;;;2.60;1.92;;;19.20;1.00;;;;;;9976208;29;20231;-79
2023/07/13 22:32:41;;;;;;;3.78;2.03;;;19.20;99.90;;;;;;9987150;29;20261;-82
2023/07/13 22:38:13;;;;;;;2.25;1.70;;;19.10;99.90;;;;;;9986263;29;20386;-80
2023/07/13 22:43:36;;;;;;;3.58;1.73;;;19.10;1.00;;;;;;9973623;29;20212;-81
2023/07/13 22:49:04;;;;;;;3.78;1.98;;;19.00;1.00;;;;;;9952318;29;20212;-81
2023/07/13 22:54:26;;;;;;;2.38;1.80;;;19.00;94.40;;;;;;9951934;29;20244;-81
2023/07/13 22:59:49;;;;;;;2.95;2.13;;;19.00;99.90;;;;;;9982213;29;20227;-81
2023/07/13 23:05:15;;;;;;;3.50;2.03;;;18.90;1.00;;;;;;9979498;29;20289;-81
2023/07/13 23:10:36;;;;;;;3.13;1.60;;;18.90;1.00;;;;;;9964018;29;20227;-82
2023/07/13 23:15:59;;;;;;;2.42;1.73;;;18.90;99.90;;;;;;9964813;29;20201;-81
2023/07/13 23:21:21;;;;;;;2.22;1.50;;;18.80;99.90;;;;;;10006545;29;20231;-81
2023/07/13 23:26:43;;;;;;;2.88;1.63;;;18.60;99.90;;;;;;9988962;29;20243;-81
2023/07/13 23:32:05;;;;;;;2.67;1.77;;;18.70;99.90;;;;;;10001725;29;20214;-81
2023/07/13 23:37:27;;;;;;;2.45;1.63;;;18.60;99.90;;;;;;10012566;29;20252;-82
2023/07/13 23:42:49;;;;;;;1.70;1.50;;;18.50;99.90;;;;;;10002803;29;20196;-80
2023/07/13 23:48:12;;;;;;;1.77;1.58;;;18.50;99.90;;;;;;9978341;29;20246;-81
2023/07/13 23:53:34;;;;;;;6.15;1.75;;;18.40;99.90;;;;;;9963563;29;20256;-81
2023/07/13 23:58:55;;;;;;;2.08;1.38;;;18.40;57.40;;;;;;9951087;29;20261;-81
